sensor_id;sensor_type;location;lat;lon;timestamp;pressure;altitude;pressure_sealevel;temperature;humidity
250;BME280;109;19.806;-70.704;2024-02-15T00:01:11;101567.88;;;28.50;43.74
250;BME280;109;19.806;-70.704;2024-02-15T00:03:37;101569.84;;;28.48;43.70
250;BME280;109;19.806;-70.704;2024-02-15T00:06:04;101573.69;;;28.46;43.82
250;BME280;109;19.806;-70.704;2024-02-15T00:08:30;101582.38;;;28.27;43.39
250;BME280;109;19.806;-70.704;2024-02-15T00:10:56;101587.53;;;27.84;44.84
250;BME280;109;19.806;-70.704;2024-02-15T00:13:23;101600.72;;;26.91;47.64
250;BME280;109;19.806;-70.704;2024-02-15T00:15:49;101600.94;;;27.01;47.68
250;BME280;109;19.806;-70.704;2024-02-15T00:18:16;101598.91;;;27.41;46.83
250;BME280;109;19.806;-70.704;2024-02-15T00:20:42;101603.63;;;27.98;45.94
250;BME280;109;19.806;-70.704;2024-02-15T00:23:10;101596.81;;;28.16;45.49
250;BME280;109;19.806;-70.704;2024-02-15T00:25:36;101596.06;;;27.90;45.76
250;BME280;109;19.806;-70.704;2024-02-15T00:28:03;101598.22;;;27.98;45.84
250;BME280;109;19.806;-70.704;2024-02-15T00:30:29;101603.41;;;28.01;45.97
250;BME280;109;19.806;-70.704;2024-02-15T00:32:57;101616.00;;;28.02;45.74
250;BME280;109;19.806;-70.704;2024-02-15T00:35:23;101617.66;;;28.27;45.34
250;BME280;109;19.806;-70.704;2024-02-15T00:37:51;101610.84;;;28.21;45.33
250;BME280;109;19.806;-70.704;2024-02-15T00:40:17;101621.59;;;28.23;45.21
250;BME280;109;19.806;-70.704;2024-02-15T00:42:44;101624.47;;;27.98;45.71
250;BME280;109;19.806;-70.704;2024-02-15T00:45:11;101633.56;;;28.55;44.95
250;BME280;109;19.806;-70.704;2024-02-15T00:47:37;101630.94;;;28.54;45.10
250;BME280;109;19.806;-70.704;2024-02-15T00:50:10;101638.06;;;28.33;45.28
250;BME280;109;19.806;-70.704;2024-02-15T00:52:36;101640.69;;;28.45;45.29
250;BME280;109;19.806;-70.704;2024-02-15T00:55:09;101645.72;;;28.04;45.83
250;BME280;109;19.806;-70.704;2024-02-15T00:57:35;101647.03;;;27.98;45.76
250;BME280;109;19.806;-70.704;2024-02-15T01:00:08;101642.47;;;27.99;45.99
250;BME280;109;19.806;-70.704;2024-02-15T01:02:35;101637.94;;;27.99;45.91
250;BME280;109;19.806;-70.704;2024-02-15T01:05:08;101639.59;;;28.24;45.63
250;BME280;109;19.806;-70.704;2024-02-15T01:07:35;101650.22;;;28.27;45.50
250;BME280;109;19.806;-70.704;2024-02-15T01:10:15;101648.28;;;28.29;45.44
250;BME280;109;19.806;-70.704;2024-02-15T01:12:42;101652.44;;;28.22;45.55
250;BME280;109;19.806;-70.704;2024-02-15T01:15:16;101654.94;;;28.36;45.33
250;BME280;109;19.806;-70.704;2024-02-15T01:17:44;101654.59;;;28.41;45.28
250;BME280;109;19.806;-70.704;2024-02-15T01:20:17;101660.47;;;28.35;45.38
250;BME280;109;19.806;-70.704;2024-02-15T01:22:43;101671.69;;;28.19;45.33
250;BME280;109;19.806;-70.704;2024-02-15T01:25:19;101661.34;;;28.35;45.27
250;BME280;109;19.806;-70.704;2024-02-15T01:27:45;101667.03;;;28.32;45.13
250;BME280;109;19.806;-70.704;2024-02-15T01:30:19;101667.16;;;28.30;45.37
250;BME280;109;19.806;-70.704;2024-02-15T01:32:45;101658.72;;;28.46;45.02
250;BME280;109;19.806;-70.704;2024-02-15T01:35:18;101660.47;;;28.35;45.39
250;BME280;109;19.806;-70.704;2024-02-15T01:37:44;101657.75;;;28.23;45.48
250;BME280;109;19.806;-70.704;2024-02-15T01:40:17;101668.56;;;28.12;45.72
250;BME280;109;19.806;-70.704;2024-02-15T01:42:45;101664.59;;;28.40;45.17
250;BME280;109;19.806;-70.704;2024-02-15T01:45:25;101663.78;;;28.62;44.90
250;BME280;109;19.806;-70.704;2024-02-15T01:47:58;101664.69;;;28.39;43.94
250;BME280;109;19.806;-70.704;2024-02-15T01:50:25;101659.13;;;28.29;44.09
250;BME280;109;19.806;-70.704;2024-02-15T01:52:58;101669.75;;;28.08;44.13
250;BME280;109;19.806;-70.704;2024-02-15T01:55:25;101667.63;;;27.77;44.36
250;BME280;109;19.806;-70.704;2024-02-15T01:57:58;101667.69;;;27.88;44.36
250;BME280;109;19.806;-70.704;2024-02-15T02:00:25;101666.44;;;27.81;44.61
250;BME280;109;19.806;-70.704;2024-02-15T02:02:58;101673.09;;;27.88;44.42
250;BME280;109;19.806;-70.704;2024-02-15T02:05:35;101673.53;;;27.94;44.16
250;BME280;109;19.806;-70.704;2024-02-15T02:08:02;101683.38;;;27.95;43.35
250;BME280;109;19.806;-70.704;2024-02-15T02:10:39;101684.13;;;27.74;43.99
250;BME280;109;19.806;-70.704;2024-02-15T02:13:13;101685.69;;;27.65;44.14
250;BME280;109;19.806;-70.704;2024-02-15T02:15:39;101678.41;;;27.66;44.49
250;BME280;109;19.806;-70.704;2024-02-15T02:18:12;101677.56;;;27.52;44.72
250;BME280;109;19.806;-70.704;2024-02-15T02:20:39;101685.38;;;27.57;44.48
250;BME280;109;19.806;-70.704;2024-02-15T02:23:16;101687.97;;;27.58;44.36
250;BME280;109;19.806;-70.704;2024-02-15T02:25:52;101685.28;;;27.82;44.03
250;BME280;109;19.806;-70.704;2024-02-15T02:28:20;101691.38;;;27.97;43.60
250;BME280;109;19.806;-70.704;2024-02-15T02:30:54;101693.81;;;27.89;43.48
250;BME280;109;19.806;-70.704;2024-02-15T02:33:22;101688.78;;;27.72;43.55
250;BME280;109;19.806;-70.704;2024-02-15T02:35:57;101693.72;;;27.67;43.84
250;BME280;109;19.806;-70.704;2024-02-15T02:38:23;101698.16;;;27.68;43.96
250;BME280;109;19.806;-70.704;2024-02-15T02:40:58;101690.13;;;27.66;43.92
250;BME280;109;19.806;-70.704;2024-02-15T02:43:24;101693.94;;;27.64;44.13
250;BME280;109;19.806;-70.704;2024-02-15T02:45:57;101698.31;;;27.77;43.77
250;BME280;109;19.806;-70.704;2024-02-15T02:48:23;101690.69;;;27.82;43.74
250;BME280;109;19.806;-70.704;2024-02-15T02:50:57;101691.94;;;27.78;43.12
250;BME280;109;19.806;-70.704;2024-02-15T02:53:24;101690.78;;;27.57;43.63
250;BME280;109;19.806;-70.704;2024-02-15T02:55:57;101688.84;;;27.59;43.66
250;BME280;109;19.806;-70.704;2024-02-15T02:58:23;101687.78;;;27.36;43.86
250;BME280;109;19.806;-70.704;2024-02-15T03:00:56;101690.34;;;27.63;43.81
250;BME280;109;19.806;-70.704;2024-02-15T03:03:26;101687.38;;;27.42;44.04
250;BME280;109;19.806;-70.704;2024-02-15T03:05:59;101689.50;;;27.50;44.20
250;BME280;109;19.806;-70.704;2024-02-15T03:08:27;101685.91;;;27.62;43.59
250;BME280;109;19.806;-70.704;2024-02-15T03:11:00;101687.09;;;27.58;43.80
250;BME280;109;19.806;-70.704;2024-02-15T03:13:26;101691.81;;;27.56;43.58
250;BME280;109;19.806;-70.704;2024-02-15T03:16:00;101695.31;;;27.69;44.00
250;BME280;109;19.806;-70.704;2024-02-15T03:18:26;101689.88;;;27.69;43.79
250;BME280;109;19.806;-70.704;2024-02-15T03:20:59;101689.16;;;27.67;43.91
250;BME280;109;19.806;-70.704;2024-02-15T03:23:25;101689.81;;;27.58;43.63
250;BME280;109;19.806;-70.704;2024-02-15T03:25:58;101683.38;;;27.72;44.10
250;BME280;109;19.806;-70.704;2024-02-15T03:28:24;101684.94;;;27.87;43.53
250;BME280;109;19.806;-70.704;2024-02-15T03:30:58;101687.06;;;27.71;43.88
250;BME280;109;19.806;-70.704;2024-02-15T03:33:26;101677.56;;;27.65;43.87
250;BME280;109;19.806;-70.704;2024-02-15T03:36:05;101678.66;;;27.50;44.15
250;BME280;109;19.806;-70.704;2024-02-15T03:38:31;101673.44;;;27.59;44.06
250;BME280;109;19.806;-70.704;2024-02-15T03:41:04;101674.97;;;27.51;44.11
250;BME280;109;19.806;-70.704;2024-02-15T03:43:31;101661.97;;;27.56;44.49
250;BME280;109;19.806;-70.704;2024-02-15T03:46:06;101648.94;;;27.61;43.84
250;BME280;109;19.806;-70.704;2024-02-15T03:48:34;101660.66;;;27.49;43.92
250;BME280;109;19.806;-70.704;2024-02-15T03:51:07;101652.88;;;27.32;43.92
250;BME280;109;19.806;-70.704;2024-02-15T03:53:35;101661.34;;;27.40;44.02
250;BME280;109;19.806;-70.704;2024-02-15T03:56:09;101658.69;;;27.51;43.85
250;BME280;109;19.806;-70.704;2024-02-15T03:58:35;101661.44;;;27.38;44.18
250;BME280;109;19.806;-70.704;2024-02-15T04:01:09;101660.31;;;27.66;43.77
250;BME280;109;19.806;-70.704;2024-02-15T04:03:36;101658.69;;;27.51;44.13
250;BME280;109;19.806;-70.704;2024-02-15T04:06:09;101663.56;;;27.58;43.76
250;BME280;109;19.806;-70.704;2024-02-15T04:08:37;101657.56;;;27.42;43.95
250;BME280;109;19.806;-70.704;2024-02-15T04:11:11;101657.81;;;27.27;43.77
250;BME280;109;19.806;-70.704;2024-02-15T04:13:37;101645.38;;;27.11;44.07
250;BME280;109;19.806;-70.704;2024-02-15T04:16:10;101655.84;;;27.29;44.24
250;BME280;109;19.806;-70.704;2024-02-15T04:18:36;101641.00;;;27.58;43.77
250;BME280;109;19.806;-70.704;2024-02-15T04:21:10;101641.28;;;27.42;44.06
250;BME280;109;19.806;-70.704;2024-02-15T04:23:37;101646.72;;;27.42;44.15
250;BME280;109;19.806;-70.704;2024-02-15T04:26:10;101646.53;;;27.20;44.19
250;BME280;109;19.806;-70.704;2024-02-15T04:28:40;101635.81;;;27.18;44.63
250;BME280;109;19.806;-70.704;2024-02-15T04:31:14;101634.81;;;27.07;44.62
250;BME280;109;19.806;-70.704;2024-02-15T04:33:41;101625.94;;;27.05;44.65
250;BME280;109;19.806;-70.704;2024-02-15T04:36:14;101633.53;;;27.25;44.66
250;BME280;109;19.806;-70.704;2024-02-15T04:38:44;101626.28;;;27.00;44.84
250;BME280;109;19.806;-70.704;2024-02-15T04:41:18;101622.38;;;26.91;44.85
250;BME280;109;19.806;-70.704;2024-02-15T04:43:55;101622.94;;;27.09;44.32
250;BME280;109;19.806;-70.704;2024-02-15T04:46:43;101614.81;;;26.84;44.41
250;BME280;109;19.806;-70.704;2024-02-15T04:49:19;101618.59;;;26.81;44.62
250;BME280;109;19.806;-70.704;2024-02-15T04:51:46;101614.84;;;26.71;44.94
250;BME280;109;19.806;-70.704;2024-02-15T04:54:22;101618.50;;;26.70;45.32
250;BME280;109;19.806;-70.704;2024-02-15T04:56:48;101610.94;;;26.63;45.00
250;BME280;109;19.806;-70.704;2024-02-15T04:59:26;101609.59;;;26.55;45.30
250;BME280;109;19.806;-70.704;2024-02-15T05:01:55;101603.31;;;26.42;45.59
250;BME280;109;19.806;-70.704;2024-02-15T05:04:30;101608.72;;;26.42;45.54
250;BME280;109;19.806;-70.704;2024-02-15T05:07:09;101603.44;;;26.53;45.10
250;BME280;109;19.806;-70.704;2024-02-15T05:09:35;101601.06;;;26.49;45.47
250;BME280;109;19.806;-70.704;2024-02-15T05:12:08;101598.00;;;26.41;45.65
250;BME280;109;19.806;-70.704;2024-02-15T05:14:34;101609.28;;;26.47;45.66
250;BME280;109;19.806;-70.704;2024-02-15T05:17:09;101603.31;;;26.55;45.28
250;BME280;109;19.806;-70.704;2024-02-15T05:19:35;101598.69;;;26.70;45.40
250;BME280;109;19.806;-70.704;2024-02-15T05:22:08;101589.28;;;26.63;45.64
250;BME280;109;19.806;-70.704;2024-02-15T05:24:34;101595.22;;;26.68;45.52
250;BME280;109;19.806;-70.704;2024-02-15T05:27:08;101590.56;;;26.70;45.60
250;BME280;109;19.806;-70.704;2024-02-15T05:29:34;101579.22;;;26.65;45.59
250;BME280;109;19.806;-70.704;2024-02-15T05:32:08;101584.81;;;26.62;45.26
250;BME280;109;19.806;-70.704;2024-02-15T05:34:35;101582.81;;;26.65;45.69
250;BME280;109;19.806;-70.704;2024-02-15T05:37:12;101570.75;;;26.56;45.53
250;BME280;109;19.806;-70.704;2024-02-15T05:39:38;101566.75;;;26.49;45.61
250;BME280;109;19.806;-70.704;2024-02-15T05:42:12;101573.03;;;26.50;45.67
250;BME280;109;19.806;-70.704;2024-02-15T05:44:38;101572.78;;;26.40;45.74
250;BME280;109;19.806;-70.704;2024-02-15T05:47:13;101582.03;;;26.38;45.58
250;BME280;109;19.806;-70.704;2024-02-15T05:49:53;101573.66;;;26.53;45.09
250;BME280;109;19.806;-70.704;2024-02-15T05:52:19;101572.09;;;26.64;45.54
250;BME280;109;19.806;-70.704;2024-02-15T05:54:52;101569.56;;;26.61;45.33
250;BME280;109;19.806;-70.704;2024-02-15T05:57:18;101570.84;;;26.55;45.50
250;BME280;109;19.806;-70.704;2024-02-15T05:59:51;101565.13;;;26.60;45.06
250;BME280;109;19.806;-70.704;2024-02-15T06:02:17;101568.91;;;26.44;45.43
250;BME280;109;19.806;-70.704;2024-02-15T06:04:50;101558.63;;;26.49;45.48
250;BME280;109;19.806;-70.704;2024-02-15T06:07:18;101570.63;;;26.45;45.69
250;BME280;109;19.806;-70.704;2024-02-15T06:09:51;101561.97;;;26.40;45.20
250;BME280;109;19.806;-70.704;2024-02-15T06:12:17;101549.97;;;26.70;45.08
250;BME280;109;19.806;-70.704;2024-02-15T06:14:50;101542.16;;;26.52;45.29
250;BME280;109;19.806;-70.704;2024-02-15T06:17:16;101534.91;;;26.66;45.51
250;BME280;109;19.806;-70.704;2024-02-15T06:19:49;101532.53;;;26.48;45.51
250;BME280;109;19.806;-70.704;2024-02-15T06:22:15;101529.94;;;26.72;44.68
250;BME280;109;19.806;-70.704;2024-02-15T06:24:48;101523.97;;;26.42;45.78
250;BME280;109;19.806;-70.704;2024-02-15T06:27:15;101522.59;;;26.36;45.71
250;BME280;109;19.806;-70.704;2024-02-15T06:29:48;101519.34;;;26.31;45.18
250;BME280;109;19.806;-70.704;2024-02-15T06:32:39;101515.25;;;26.38;45.59
250;BME280;109;19.806;-70.704;2024-02-15T06:35:30;101512.53;;;26.26;45.45
250;BME280;109;19.806;-70.704;2024-02-15T06:38:21;101510.06;;;26.23;45.98
250;BME280;109;19.806;-70.704;2024-02-15T06:41:13;101518.47;;;26.43;44.95
250;BME280;109;19.806;-70.704;2024-02-15T06:43:39;101506.78;;;26.30;45.57
250;BME280;109;19.806;-70.704;2024-02-15T06:46:19;101505.06;;;26.29;45.78
250;BME280;109;19.806;-70.704;2024-02-15T06:48:52;101502.56;;;26.39;45.39
250;BME280;109;19.806;-70.704;2024-02-15T06:51:20;101501.16;;;26.46;45.29
250;BME280;109;19.806;-70.704;2024-02-15T06:53:53;101490.75;;;26.40;45.13
250;BME280;109;19.806;-70.704;2024-02-15T06:56:22;101486.47;;;26.25;45.28
250;BME280;109;19.806;-70.704;2024-02-15T06:58:55;101479.75;;;26.17;45.66
250;BME280;109;19.806;-70.704;2024-02-15T07:01:24;101482.53;;;26.16;45.54
250;BME280;109;19.806;-70.704;2024-02-15T07:03:57;101488.50;;;26.21;45.41
250;BME280;109;19.806;-70.704;2024-02-15T07:06:23;101484.38;;;26.41;44.89
250;BME280;109;19.806;-70.704;2024-02-15T07:08:56;101483.41;;;26.29;44.99
250;BME280;109;19.806;-70.704;2024-02-15T07:11:23;101479.53;;;26.33;45.18
250;BME280;109;19.806;-70.704;2024-02-15T07:13:56;101482.22;;;26.33;45.27
250;BME280;109;19.806;-70.704;2024-02-15T07:16:22;101474.88;;;26.35;44.96
250;BME280;109;19.806;-70.704;2024-02-15T07:18:55;101473.00;;;26.48;45.17
250;BME280;109;19.806;-70.704;2024-02-15T07:21:22;101470.84;;;26.41;45.02
250;BME280;109;19.806;-70.704;2024-02-15T07:24:01;101464.34;;;26.43;44.83
250;BME280;109;19.806;-70.704;2024-02-15T07:26:27;101466.28;;;26.41;45.62
250;BME280;109;19.806;-70.704;2024-02-15T07:29:00;101454.81;;;26.63;44.93
250;BME280;109;19.806;-70.704;2024-02-15T07:31:30;101459.72;;;26.82;44.72
250;BME280;109;19.806;-70.704;2024-02-15T07:34:03;101463.34;;;26.94;44.87
250;BME280;109;19.806;-70.704;2024-02-15T07:36:30;101467.50;;;26.86;44.95
250;BME280;109;19.806;-70.704;2024-02-15T07:39:04;101459.72;;;26.82;45.39
250;BME280;109;19.806;-70.704;2024-02-15T07:41:30;101444.75;;;26.89;45.42
250;BME280;109;19.806;-70.704;2024-02-15T07:44:05;101449.31;;;26.88;45.44
250;BME280;109;19.806;-70.704;2024-02-15T07:46:52;101443.19;;;26.98;45.38
250;BME280;109;19.806;-70.704;2024-02-15T07:49:25;101429.72;;;26.85;44.84
250;BME280;109;19.806;-70.704;2024-02-15T07:51:52;101432.38;;;26.74;45.20
250;BME280;109;19.806;-70.704;2024-02-15T07:54:28;101430.16;;;26.79;45.05
250;BME280;109;19.806;-70.704;2024-02-15T07:56:55;101432.75;;;26.80;44.85
250;BME280;109;19.806;-70.704;2024-02-15T07:59:28;101424.31;;;26.85;45.17
250;BME280;109;19.806;-70.704;2024-02-15T08:01:55;101427.63;;;26.65;45.57
250;BME280;109;19.806;-70.704;2024-02-15T08:04:27;101434.03;;;26.51;45.23
250;BME280;109;19.806;-70.704;2024-02-15T08:06:54;101433.56;;;26.70;45.24
250;BME280;109;19.806;-70.704;2024-02-15T08:09:27;101438.47;;;26.65;45.18
250;BME280;109;19.806;-70.704;2024-02-15T08:11:53;101423.09;;;26.65;45.56
250;BME280;109;19.806;-70.704;2024-02-15T08:14:28;101422.84;;;26.68;45.19
250;BME280;109;19.806;-70.704;2024-02-15T08:16:55;101438.00;;;26.71;45.38
250;BME280;109;19.806;-70.704;2024-02-15T08:19:28;101431.81;;;26.69;44.97
250;BME280;109;19.806;-70.704;2024-02-15T08:21:54;101440.31;;;26.64;44.98
250;BME280;109;19.806;-70.704;2024-02-15T08:24:28;101435.47;;;26.80;44.70
250;BME280;109;19.806;-70.704;2024-02-15T08:26:55;101446.72;;;26.87;44.69
250;BME280;109;19.806;-70.704;2024-02-15T08:29:30;101450.66;;;26.58;45.37
250;BME280;109;19.806;-70.704;2024-02-15T08:31:57;101439.44;;;26.51;45.34
250;BME280;109;19.806;-70.704;2024-02-15T08:34:30;101432.09;;;26.40;45.29
250;BME280;109;19.806;-70.704;2024-02-15T08:36:56;101439.25;;;26.29;45.43
250;BME280;109;19.806;-70.704;2024-02-15T08:39:30;101438.38;;;26.15;45.66
250;BME280;109;19.806;-70.704;2024-02-15T08:41:57;101450.19;;;26.27;45.57
250;BME280;109;19.806;-70.704;2024-02-15T08:44:31;101457.75;;;26.35;45.33
250;BME280;109;19.806;-70.704;2024-02-15T08:47:11;101470.72;;;26.42;45.58
250;BME280;109;19.806;-70.704;2024-02-15T08:49:37;101474.75;;;26.37;45.12
250;BME280;109;19.806;-70.704;2024-02-15T08:52:12;101472.06;;;26.24;45.01
250;BME280;109;19.806;-70.704;2024-02-15T08:54:39;101467.53;;;26.25;45.09
250;BME280;109;19.806;-70.704;2024-02-15T08:57:11;101464.66;;;26.13;44.91
250;BME280;109;19.806;-70.704;2024-02-15T08:59:39;101472.03;;;25.99;45.00
250;BME280;109;19.806;-70.704;2024-02-15T09:02:12;101479.63;;;26.19;44.59
250;BME280;109;19.806;-70.704;2024-02-15T09:04:40;101484.16;;;25.93;45.12
250;BME280;109;19.806;-70.704;2024-02-15T09:07:13;101483.28;;;26.05;45.62
250;BME280;109;19.806;-70.704;2024-02-15T09:09:40;101494.84;;;25.95;44.91
250;BME280;109;19.806;-70.704;2024-02-15T09:12:13;101489.66;;;25.92;44.95
250;BME280;109;19.806;-70.704;2024-02-15T09:14:40;101499.59;;;25.78;45.07
250;BME280;109;19.806;-70.704;2024-02-15T09:17:13;101502.19;;;25.80;45.37
250;BME280;109;19.806;-70.704;2024-02-15T09:19:40;101506.09;;;25.89;45.32
250;BME280;109;19.806;-70.704;2024-02-15T09:22:13;101503.06;;;26.06;45.16
250;BME280;109;19.806;-70.704;2024-02-15T09:24:40;101496.91;;;25.91;45.03
250;BME280;109;19.806;-70.704;2024-02-15T09:27:14;101498.31;;;25.97;45.16
250;BME280;109;19.806;-70.704;2024-02-15T09:29:41;101509.66;;;26.02;45.22
250;BME280;109;19.806;-70.704;2024-02-15T09:32:14;101515.63;;;26.07;45.14
250;BME280;109;19.806;-70.704;2024-02-15T09:34:41;101519.50;;;26.03;44.80
250;BME280;109;19.806;-70.704;2024-02-15T09:37:14;101532.84;;;26.06;45.02
250;BME280;109;19.806;-70.704;2024-02-15T09:39:41;101532.63;;;25.96;44.78
250;BME280;109;19.806;-70.704;2024-02-15T09:42:14;101540.06;;;25.93;44.83
250;BME280;109;19.806;-70.704;2024-02-15T09:44:41;101537.78;;;25.87;44.66
250;BME280;109;19.806;-70.704;2024-02-15T09:47:18;101538.78;;;26.11;44.61
250;BME280;109;19.806;-70.704;2024-02-15T09:49:45;101542.56;;;25.96;44.85
250;BME280;109;19.806;-70.704;2024-02-15T09:52:18;101549.91;;;25.94;44.45
250;BME280;109;19.806;-70.704;2024-02-15T09:54:45;101559.28;;;25.88;44.44
250;BME280;109;19.806;-70.704;2024-02-15T09:57:19;101558.97;;;25.80;44.96
250;BME280;109;19.806;-70.704;2024-02-15T09:59:46;101560.28;;;25.87;44.79
250;BME280;109;19.806;-70.704;2024-02-15T10:02:19;101570.97;;;25.89;44.82
250;BME280;109;19.806;-70.704;2024-02-15T10:04:47;101571.41;;;25.82;44.89
250;BME280;109;19.806;-70.704;2024-02-15T10:07:20;101570.66;;;25.93;44.94
250;BME280;109;19.806;-70.704;2024-02-15T10:09:46;101582.16;;;25.97;44.39
250;BME280;109;19.806;-70.704;2024-02-15T10:12:19;101585.59;;;25.86;44.18
250;BME280;109;19.806;-70.704;2024-02-15T10:14:50;101581.66;;;25.77;45.17
250;BME280;109;19.806;-70.704;2024-02-15T10:17:22;101593.00;;;25.70;44.66
250;BME280;109;19.806;-70.704;2024-02-15T10:20:03;101586.09;;;25.78;45.09
250;BME280;109;19.806;-70.704;2024-02-15T10:22:37;101594.53;;;25.74;45.39
250;BME280;109;19.806;-70.704;2024-02-15T10:25:14;101597.50;;;25.69;44.71
250;BME280;109;19.806;-70.704;2024-02-15T10:27:47;101596.38;;;25.73;44.71
250;BME280;109;19.806;-70.704;2024-02-15T10:30:18;101597.03;;;25.63;45.15
250;BME280;109;19.806;-70.704;2024-02-15T10:32:51;101591.28;;;25.55;44.97
250;BME280;109;19.806;-70.704;2024-02-15T10:35:21;101593.78;;;25.58;45.21
250;BME280;109;19.806;-70.704;2024-02-15T10:38:08;101592.09;;;25.69;44.95
250;BME280;109;19.806;-70.704;2024-02-15T10:40:41;101594.91;;;25.68;44.73
250;BME280;109;19.806;-70.704;2024-02-15T10:43:09;101592.81;;;25.73;44.85
250;BME280;109;19.806;-70.704;2024-02-15T10:45:55;101590.22;;;25.84;44.43
250;BME280;109;19.806;-70.704;2024-02-15T10:48:36;101591.09;;;25.84;44.78
250;BME280;109;19.806;-70.704;2024-02-15T10:51:04;101584.22;;;26.06;44.27
250;BME280;109;19.806;-70.704;2024-02-15T10:53:47;101608.00;;;26.01;44.34
250;BME280;109;19.806;-70.704;2024-02-15T10:56:18;101614.25;;;26.01;44.39
250;BME280;109;19.806;-70.704;2024-02-15T10:59:15;101609.97;;;26.11;44.33
250;BME280;109;19.806;-70.704;2024-02-15T11:01:42;101613.16;;;26.18;44.44
250;BME280;109;19.806;-70.704;2024-02-15T11:04:14;101619.88;;;26.25;43.76
250;BME280;109;19.806;-70.704;2024-02-15T11:06:43;101624.31;;;26.26;44.47
250;BME280;109;19.806;-70.704;2024-02-15T11:09:11;101633.34;;;26.12;44.17
250;BME280;109;19.806;-70.704;2024-02-15T11:11:39;101638.00;;;26.10;44.15
250;BME280;109;19.806;-70.704;2024-02-15T11:14:29;101645.88;;;26.13;44.00
250;BME280;109;19.806;-70.704;2024-02-15T11:16:56;101651.88;;;25.92;44.58
250;BME280;109;19.806;-70.704;2024-02-15T11:22:08;101660.03;;;26.04;44.12
250;BME280;109;19.806;-70.704;2024-02-15T11:24:37;101665.66;;;26.01;44.23
250;BME280;109;19.806;-70.704;2024-02-15T11:27:04;101678.75;;;26.22;43.96
250;BME280;109;19.806;-70.704;2024-02-15T11:32:37;101688.69;;;26.21;44.26
250;BME280;109;19.806;-70.704;2024-02-15T11:35:06;101697.56;;;26.23;44.10
250;BME280;109;19.806;-70.704;2024-02-15T11:43:07;101715.84;;;26.19;44.25
250;BME280;109;19.806;-70.704;2024-02-15T11:45:35;101711.63;;;26.28;44.45
250;BME280;109;19.806;-70.704;2024-02-15T11:48:11;101723.13;;;26.32;44.47
250;BME280;109;19.806;-70.704;2024-02-15T11:50:38;101727.13;;;26.26;44.12
250;BME280;109;19.806;-70.704;2024-02-15T11:53:08;101729.09;;;26.37;44.56
250;BME280;109;19.806;-70.704;2024-02-15T11:55:39;101732.44;;;26.40;44.33
250;BME280;109;19.806;-70.704;2024-02-15T11:58:07;101741.03;;;26.47;44.34
250;BME280;109;19.806;-70.704;2024-02-15T12:00:34;101735.06;;;26.42;44.14
250;BME280;109;19.806;-70.704;2024-02-15T12:03:19;101749.88;;;26.63;43.42
250;BME280;109;19.806;-70.704;2024-02-15T12:06:04;101751.28;;;26.69;43.71
250;BME280;109;19.806;-70.704;2024-02-15T12:08:51;101758.03;;;26.76;43.56
250;BME280;109;19.806;-70.704;2024-02-15T12:11:59;101763.66;;;26.98;43.26
250;BME280;109;19.806;-70.704;2024-02-15T12:14:44;101773.84;;;27.07;43.14
250;BME280;109;19.806;-70.704;2024-02-15T12:17:29;101773.88;;;27.33;42.71
250;BME280;109;19.806;-70.704;2024-02-15T12:20:13;101772.78;;;27.60;42.80
250;BME280;109;19.806;-70.704;2024-02-15T12:22:49;101782.94;;;27.70;42.52
250;BME280;109;19.806;-70.704;2024-02-15T12:25:17;101782.06;;;27.82;42.41
250;BME280;109;19.806;-70.704;2024-02-15T12:27:52;101793.84;;;27.93;42.09
250;BME280;109;19.806;-70.704;2024-02-15T12:30:20;101792.66;;;27.98;41.95
250;BME280;109;19.806;-70.704;2024-02-15T12:32:50;101792.00;;;28.07;41.89
250;BME280;109;19.806;-70.704;2024-02-15T12:35:21;101796.03;;;28.25;41.75
250;BME280;109;19.806;-70.704;2024-02-15T12:38:12;101800.53;;;28.37;41.35
250;BME280;109;19.806;-70.704;2024-02-15T12:40:42;101795.53;;;28.44;41.37
250;BME280;109;19.806;-70.704;2024-02-15T12:43:12;101799.63;;;28.49;40.88
250;BME280;109;19.806;-70.704;2024-02-15T12:45:39;101805.16;;;28.72;40.62
250;BME280;109;19.806;-70.704;2024-02-15T12:48:10;101809.81;;;28.58;40.51
250;BME280;109;19.806;-70.704;2024-02-15T12:50:36;101806.50;;;28.66;40.23
250;BME280;109;19.806;-70.704;2024-02-15T12:53:03;101806.66;;;28.28;40.64
250;BME280;109;19.806;-70.704;2024-02-15T12:55:33;101799.94;;;28.57;40.64
250;BME280;109;19.806;-70.704;2024-02-15T12:58:05;101810.44;;;28.97;40.28
250;BME280;109;19.806;-70.704;2024-02-15T13:00:35;101810.81;;;29.04;40.34
250;BME280;109;19.806;-70.704;2024-02-15T13:03:05;101813.94;;;29.10;39.75
250;BME280;109;19.806;-70.704;2024-02-15T13:05:36;101818.13;;;29.14;39.97
250;BME280;109;19.806;-70.704;2024-02-15T13:08:03;101817.47;;;28.99;40.13
250;BME280;109;19.806;-70.704;2024-02-15T13:10:39;101820.25;;;29.22;39.56
250;BME280;109;19.806;-70.704;2024-02-15T13:13:05;101825.28;;;29.15;40.02
250;BME280;109;19.806;-70.704;2024-02-15T13:15:32;101838.56;;;29.31;39.52
250;BME280;109;19.806;-70.704;2024-02-15T13:17:59;101840.53;;;29.29;39.40
250;BME280;109;19.806;-70.704;2024-02-15T13:20:26;101834.75;;;29.33;39.37
250;BME280;109;19.806;-70.704;2024-02-15T13:22:59;101841.84;;;29.12;39.70
250;BME280;109;19.806;-70.704;2024-02-15T13:25:38;101849.59;;;29.52;39.58
250;BME280;109;19.806;-70.704;2024-02-15T13:28:06;101855.13;;;29.39;39.52
250;BME280;109;19.806;-70.704;2024-02-15T13:30:34;101858.34;;;29.33;39.94
250;BME280;109;19.806;-70.704;2024-02-15T13:33:02;101854.69;;;29.10;39.98
250;BME280;109;19.806;-70.704;2024-02-15T13:35:28;101845.31;;;29.14;40.00
250;BME280;109;19.806;-70.704;2024-02-15T13:37:55;101860.94;;;28.99;40.30
250;BME280;109;19.806;-70.704;2024-02-15T13:40:28;101867.53;;;29.08;40.30
250;BME280;109;19.806;-70.704;2024-02-15T13:42:59;101869.88;;;29.48;39.87